Terminal Aerodrome Forecast
Issued by NWS Sioux Falls, SD

Home | Current Version | Previous Version | Graphics & Text | Print | Product List | Glossary On
Versions: 1 2 3 4 5 6 7 8 9 10 11 12 13 14 15 16 17 18 19 20 21
836
FTUS43 KFSD 192320
TAFFSD
TAF
KFSD 192320Z 2000/2024 16008KT P6SM FEW120
     FM200800 18004KT P6SM FEW070
     FM201400 05007KT P6SM SCT070=

USA.gov is the U.S. government's official web portal to all federal, state and local government web resources and services.